sensor_id;sensor_type;location;lat;lon;timestamp;temperature;humidity
21417;DHT22;10869;52.238;10.716;2023-06-14T03:03:48;12.50;95.00
21417;DHT22;10869;52.238;10.716;2023-06-14T03:06:14;12.40;95.10
21417;DHT22;10869;52.238;10.716;2023-06-14T03:08:45;12.40;95.20
21417;DHT22;10869;52.238;10.716;2023-06-14T03:11:11;12.30;95.30
21417;DHT22;10869;52.238;10.716;2023-06-14T03:13:37;12.30;95.40
21417;DHT22;10869;52.238;10.716;2023-06-14T03:16:04;12.30;95.60
21417;DHT22;10869;52.238;10.716;2023-06-14T03:18:30;12.30;95.60
21417;DHT22;10869;52.238;10.716;2023-06-14T03:21:01;12.20;95.80
21417;DHT22;10869;52.238;10.716;2023-06-14T03:23:28;12.20;95.80
21417;DHT22;10869;52.238;10.716;2023-06-14T03:25:53;12.20;95.90
21417;DHT22;10869;52.238;10.716;2023-06-14T03:28:19;12.20;95.90
21417;DHT22;10869;52.238;10.716;2023-06-14T03:30:45;12.20;96.00
21417;DHT22;10869;52.238;10.716;2023-06-14T03:33:11;12.20;96.10
21417;DHT22;10869;52.238;10.716;2023-06-14T03:35:36;12.20;96.10
21417;DHT22;10869;52.238;10.716;2023-06-14T03:38:02;12.20;96.30
21417;DHT22;10869;52.238;10.716;2023-06-14T03:40:29;12.20;96.30
21417;DHT22;10869;52.238;10.716;2023-06-14T03:42:55;12.30;96.30
21417;DHT22;10869;52.238;10.716;2023-06-14T03:45:21;12.30;96.40
21417;DHT22;10869;52.238;10.716;2023-06-14T03:47:47;12.30;96.30
21417;DHT22;10869;52.238;10.716;2023-06-14T03:50:13;12.30;96.40
21417;DHT22;10869;52.238;10.716;2023-06-14T03:52:39;12.30;96.50
21417;DHT22;10869;52.238;10.716;2023-06-14T03:55:07;12.30;96.60
21417;DHT22;10869;52.238;10.716;2023-06-14T03:57:33;12.30;96.80
21417;DHT22;10869;52.238;10.716;2023-06-14T03:59:59;12.30;97.00
21417;DHT22;10869;52.238;10.716;2023-06-14T04:02:24;12.30;96.90
21417;DHT22;10869;52.238;10.716;2023-06-14T04:04:50;12.30;96.90
21417;DHT22;10869;52.238;10.716;2023-06-14T04:07:17;12.40;97.00
21417;DHT22;10869;52.238;10.716;2023-06-14T04:09:46;12.40;97.10
21417;DHT22;10869;52.238;10.716;2023-06-14T04:12:12;12.40;97.20
21417;DHT22;10869;52.238;10.716;2023-06-14T04:14:39;12.40;97.30
21417;DHT22;10869;52.238;10.716;2023-06-14T04:17:05;12.40;97.40
21417;DHT22;10869;52.238;10.716;2023-06-14T04:19:30;12.40;97.50
21417;DHT22;10869;52.238;10.716;2023-06-14T04:21:56;12.50;97.40
21417;DHT22;10869;52.238;10.716;2023-06-14T04:24:22;12.60;97.40
21417;DHT22;10869;52.238;10.716;2023-06-14T04:26:49;12.60;97.40
21417;DHT22;10869;52.238;10.716;2023-06-14T04:29:16;12.60;97.40
21417;DHT22;10869;52.238;10.716;2023-06-14T04:32:04;12.70;97.60
21417;DHT22;10869;52.238;10.716;2023-06-14T04:34:39;12.70;97.70
21417;DHT22;10869;52.238;10.716;2023-06-14T04:37:05;12.80;97.60
21417;DHT22;10869;52.238;10.716;2023-06-14T04:39:36;12.90;98.00
21417;DHT22;10869;52.238;10.716;2023-06-14T04:42:05;14.20;97.00
21417;DHT22;10869;52.238;10.716;2023-06-14T04:44:32;16.50;92.80
21417;DHT22;10869;52.238;10.716;2023-06-14T04:47:12;20.20;85.20
21417;DHT22;10869;52.238;10.716;2023-06-14T04:53:50;22.50;76.30
21417;DHT22;10869;52.238;10.716;2023-06-14T05:06:45;19.40;83.40
21417;DHT22;10869;52.238;10.716;2023-06-14T05:09:14;18.50;86.90
21417;DHT22;10869;52.238;10.716;2023-06-14T05:11:40;17.90;88.80
21417;DHT22;10869;52.238;10.716;2023-06-14T05:14:10;17.60;89.50
21417;DHT22;10869;52.238;10.716;2023-06-14T05:16:36;17.40;90.10
21417;DHT22;10869;52.238;10.716;2023-06-14T05:19:03;17.40;90.20
21417;DHT22;10869;52.238;10.716;2023-06-14T05:21:30;17.90;90.10
21417;DHT22;10869;52.238;10.716;2023-06-14T05:23:56;17.90;89.40
21417;DHT22;10869;52.238;10.716;2023-06-14T05:26:22;17.70;90.30
21417;DHT22;10869;52.238;10.716;2023-06-14T05:28:54;17.80;91.60
21417;DHT22;10869;52.238;10.716;2023-06-14T05:31:22;17.90;91.80
21417;DHT22;10869;52.238;10.716;2023-06-14T05:33:49;18.90;91.00
21417;DHT22;10869;52.238;10.716;2023-06-14T05:36:22;23.20;80.90
21417;DHT22;10869;52.238;10.716;2023-06-14T05:38:48;28.00;70.60
21417;DHT22;10869;52.238;10.716;2023-06-14T05:41:14;31.50;63.20
21417;DHT22;10869;52.238;10.716;2023-06-14T05:43:40;32.70;61.30
21417;DHT22;10869;52.238;10.716;2023-06-14T05:49:27;34.00;57.70
21417;DHT22;10869;52.238;10.716;2023-06-14T05:55:16;35.40;55.30
21417;DHT22;10869;52.238;10.716;2023-06-14T05:57:42;33.10;57.00
21417;DHT22;10869;52.238;10.716;2023-06-14T06:00:08;29.30;62.10
21417;DHT22;10869;52.238;10.716;2023-06-14T06:02:43;27.50;66.50
21417;DHT22;10869;52.238;10.716;2023-06-14T06:05:12;28.80;64.00
21417;DHT22;10869;52.238;10.716;2023-06-14T06:07:39;28.70;63.30
21417;DHT22;10869;52.238;10.716;2023-06-14T06:10:09;28.60;63.70
21417;DHT22;10869;52.238;10.716;2023-06-14T06:12:35;27.30;64.30
21417;DHT22;10869;52.238;10.716;2023-06-14T06:15:01;25.70;66.60
21417;DHT22;10869;52.238;10.716;2023-06-14T06:17:27;24.00;69.80
21417;DHT22;10869;52.238;10.716;2023-06-14T06:19:54;22.40;74.40
21417;DHT22;10869;52.238;10.716;2023-06-14T06:22:20;21.20;78.70
21417;DHT22;10869;52.238;10.716;2023-06-14T06:24:45;20.50;80.00
21417;DHT22;10869;52.238;10.716;2023-06-14T06:27:11;19.90;82.70
21417;DHT22;10869;52.238;10.716;2023-06-14T06:29:42;19.50;85.10
21417;DHT22;10869;52.238;10.716;2023-06-14T06:32:09;19.20;86.50
21417;DHT22;10869;52.238;10.716;2023-06-14T06:34:45;18.90;86.80
21417;DHT22;10869;52.238;10.716;2023-06-14T06:37:11;18.80;86.40
21417;DHT22;10869;52.238;10.716;2023-06-14T06:39:40;18.60;86.50
21417;DHT22;10869;52.238;10.716;2023-06-14T06:42:05;18.60;86.10
21417;DHT22;10869;52.238;10.716;2023-06-14T06:44:32;18.50;88.60
21417;DHT22;10869;52.238;10.716;2023-06-14T06:46:58;18.50;88.60
21417;DHT22;10869;52.238;10.716;2023-06-14T06:49:24;18.50;89.00
21417;DHT22;10869;52.238;10.716;2023-06-14T06:52:06;18.50;89.80
21417;DHT22;10869;52.238;10.716;2023-06-14T06:54:33;18.40;89.60
21417;DHT22;10869;52.238;10.716;2023-06-14T06:57:00;18.40;89.90
21417;DHT22;10869;52.238;10.716;2023-06-14T06:59:36;18.40;89.50
21417;DHT22;10869;52.238;10.716;2023-06-14T07:02:02;18.50;88.20
21417;DHT22;10869;52.238;10.716;2023-06-14T07:04:28;18.50;88.60
21417;DHT22;10869;52.238;10.716;2023-06-14T07:06:53;18.60;88.10
21417;DHT22;10869;52.238;10.716;2023-06-14T07:09:19;18.60;88.60
21417;DHT22;10869;52.238;10.716;2023-06-14T07:11:48;18.60;87.50
21417;DHT22;10869;52.238;10.716;2023-06-14T07:14:14;18.60;87.80
21417;DHT22;10869;52.238;10.716;2023-06-14T07:16:43;18.60;88.30
21417;DHT22;10869;52.238;10.716;2023-06-14T07:19:12;18.70;87.70
21417;DHT22;10869;52.238;10.716;2023-06-14T07:21:37;18.70;87.50
21417;DHT22;10869;52.238;10.716;2023-06-14T07:24:05;18.80;88.00
21417;DHT22;10869;52.238;10.716;2023-06-14T07:26:32;19.00;86.60
21417;DHT22;10869;52.238;10.716;2023-06-14T07:28:57;19.00;85.80
21417;DHT22;10869;52.238;10.716;2023-06-14T07:31:23;19.10;86.10
21417;DHT22;10869;52.238;10.716;2023-06-14T07:33:49;19.30;85.90
21417;DHT22;10869;52.238;10.716;2023-06-14T07:36:14;19.30;85.00
21417;DHT22;10869;52.238;10.716;2023-06-14T07:38:40;19.20;85.80
21417;DHT22;10869;52.238;10.716;2023-06-14T07:41:06;19.30;84.80
21417;DHT22;10869;52.238;10.716;2023-06-14T07:43:39;19.30;82.90
21417;DHT22;10869;52.238;10.716;2023-06-14T07:46:05;19.30;83.70
21417;DHT22;10869;52.238;10.716;2023-06-14T07:48:34;19.40;82.40
21417;DHT22;10869;52.238;10.716;2023-06-14T07:51:02;19.50;82.70
21417;DHT22;10869;52.238;10.716;2023-06-14T07:53:38;19.50;83.90
21417;DHT22;10869;52.238;10.716;2023-06-14T07:56:07;19.60;83.00
21417;DHT22;10869;52.238;10.716;2023-06-14T07:58:35;19.70;83.90
21417;DHT22;10869;52.238;10.716;2023-06-14T08:01:09;19.80;82.50
21417;DHT22;10869;52.238;10.716;2023-06-14T08:03:35;19.90;83.40
21417;DHT22;10869;52.238;10.716;2023-06-14T08:06:01;19.80;82.40
21417;DHT22;10869;52.238;10.716;2023-06-14T08:08:28;19.90;83.00
21417;DHT22;10869;52.238;10.716;2023-06-14T08:11:06;19.90;81.50
21417;DHT22;10869;52.238;10.716;2023-06-14T08:13:34;19.80;83.60
21417;DHT22;10869;52.238;10.716;2023-06-14T08:16:03;19.90;83.10
21417;DHT22;10869;52.238;10.716;2023-06-14T08:18:35;19.90;82.40
21417;DHT22;10869;52.238;10.716;2023-06-14T08:21:08;20.00;83.00
21417;DHT22;10869;52.238;10.716;2023-06-14T08:23:34;20.00;81.80
21417;DHT22;10869;52.238;10.716;2023-06-14T08:26:04;19.90;81.40
21417;DHT22;10869;52.238;10.716;2023-06-14T08:28:35;20.00;82.60
21417;DHT22;10869;52.238;10.716;2023-06-14T08:31:10;20.00;80.60
21417;DHT22;10869;52.238;10.716;2023-06-14T08:33:39;20.10;79.30
21417;DHT22;10869;52.238;10.716;2023-06-14T08:36:18;20.20;79.00
21417;DHT22;10869;52.238;10.716;2023-06-14T08:38:48;20.40;80.30
21417;DHT22;10869;52.238;10.716;2023-06-14T08:41:20;20.40;79.50
21417;DHT22;10869;52.238;10.716;2023-06-14T08:43:47;20.50;79.10
21417;DHT22;10869;52.238;10.716;2023-06-14T08:46:18;20.50;79.20
21417;DHT22;10869;52.238;10.716;2023-06-14T08:48:51;20.60;78.60
21417;DHT22;10869;52.238;10.716;2023-06-14T08:51:20;20.80;78.00
21417;DHT22;10869;52.238;10.716;2023-06-14T08:53:55;20.80;78.20
21417;DHT22;10869;52.238;10.716;2023-06-14T08:56:26;21.00;77.60
21417;DHT22;10869;52.238;10.716;2023-06-14T08:58:53;21.00;77.80
21417;DHT22;10869;52.238;10.716;2023-06-14T09:01:20;21.10;78.30
21417;DHT22;10869;52.238;10.716;2023-06-14T09:03:51;21.20;79.10
21417;DHT22;10869;52.238;10.716;2023-06-14T09:06:37;21.20;78.10
21417;DHT22;10869;52.238;10.716;2023-06-14T09:09:03;21.30;76.00
21417;DHT22;10869;52.238;10.716;2023-06-14T09:11:30;21.40;76.60
21417;DHT22;10869;52.238;10.716;2023-06-14T09:14:00;21.50;77.20
21417;DHT22;10869;52.238;10.716;2023-06-14T09:16:25;21.70;75.00
21417;DHT22;10869;52.238;10.716;2023-06-14T09:18:59;21.70;78.00
21417;DHT22;10869;52.238;10.716;2023-06-14T09:21:25;21.90;76.60
21417;DHT22;10869;52.238;10.716;2023-06-14T09:24:01;22.10;76.80
21417;DHT22;10869;52.238;10.716;2023-06-14T09:26:28;22.30;76.30
21417;DHT22;10869;52.238;10.716;2023-06-14T09:29:04;22.50;76.00
21417;DHT22;10869;52.238;10.716;2023-06-14T09:31:31;22.60;75.50
21417;DHT22;10869;52.238;10.716;2023-06-14T09:33:58;22.40;74.40
21417;DHT22;10869;52.238;10.716;2023-06-14T09:36:27;22.40;76.00
21417;DHT22;10869;52.238;10.716;2023-06-14T09:38:53;22.50;75.10
21417;DHT22;10869;52.238;10.716;2023-06-14T09:41:19;22.50;73.90
21417;DHT22;10869;52.238;10.716;2023-06-14T09:43:47;22.60;74.40
21417;DHT22;10869;52.238;10.716;2023-06-14T09:46:13;22.70;76.70
21417;DHT22;10869;52.238;10.716;2023-06-14T09:48:39;22.90;74.90
21417;DHT22;10869;52.238;10.716;2023-06-14T09:51:10;23.00;76.40
21417;DHT22;10869;52.238;10.716;2023-06-14T09:53:41;23.00;73.10
21417;DHT22;10869;52.238;10.716;2023-06-14T09:56:07;23.10;73.50
21417;DHT22;10869;52.238;10.716;2023-06-14T09:58:39;23.30;76.40
21417;DHT22;10869;52.238;10.716;2023-06-14T10:01:17;23.50;74.50
21417;DHT22;10869;52.238;10.716;2023-06-14T10:03:44;23.70;74.30
21417;DHT22;10869;52.238;10.716;2023-06-14T10:06:11;23.70;72.60
21417;DHT22;10869;52.238;10.716;2023-06-14T10:08:38;23.50;74.10
21417;DHT22;10869;52.238;10.716;2023-06-14T10:11:07;23.50;71.30
21417;DHT22;10869;52.238;10.716;2023-06-14T10:13:35;23.50;71.80
21417;DHT22;10869;52.238;10.716;2023-06-14T10:16:10;23.30;72.40
21417;DHT22;10869;52.238;10.716;2023-06-14T10:23:43;23.50;74.00
21417;DHT22;10869;52.238;10.716;2023-06-14T10:26:18;23.70;74.40
21417;DHT22;10869;52.238;10.716;2023-06-14T10:29:07;23.90;73.30
21417;DHT22;10869;52.238;10.716;2023-06-14T10:32:02;24.30;74.80
21417;DHT22;10869;52.238;10.716;2023-06-14T10:34:30;24.30;74.40
21417;DHT22;10869;52.238;10.716;2023-06-14T10:37:03;24.50;71.60
21417;DHT22;10869;52.238;10.716;2023-06-14T10:39:29;24.60;73.10
21417;DHT22;10869;52.238;10.716;2023-06-14T10:41:56;24.80;71.60
21417;DHT22;10869;52.238;10.716;2023-06-14T10:46:55;25.00;70.80
21417;DHT22;10869;52.238;10.716;2023-06-14T10:49:38;25.10;73.30
21417;DHT22;10869;52.238;10.716;2023-06-14T10:52:12;25.30;70.50
21417;DHT22;10869;52.238;10.716;2023-06-14T11:00:07;26.00;70.40
21417;DHT22;10869;52.238;10.716;2023-06-14T11:06:12;26.20;69.10
21417;DHT22;10869;52.238;10.716;2023-06-14T11:11:35;26.40;72.00
21417;DHT22;10869;52.238;10.716;2023-06-14T11:14:04;26.50;70.10
21417;DHT22;10869;52.238;10.716;2023-06-14T11:26:48;24.60;73.70
21417;DHT22;10869;52.238;10.716;2023-06-14T11:32:37;23.90;74.80
21417;DHT22;10869;52.238;10.716;2023-06-14T11:35:04;23.60;75.40
21417;DHT22;10869;52.238;10.716;2023-06-14T11:37:33;23.40;75.30
21417;DHT22;10869;52.238;10.716;2023-06-14T11:43:21;24.30;71.10
21417;DHT22;10869;52.238;10.716;2023-06-14T11:45:50;25.00;73.90
21417;DHT22;10869;52.238;10.716;2023-06-14T11:48:19;25.60;72.50
21417;DHT22;10869;52.238;10.716;2023-06-14T11:54:07;25.60;68.40
21417;DHT22;10869;52.238;10.716;2023-06-14T11:56:34;24.90;70.30
21417;DHT22;10869;52.238;10.716;2023-06-14T11:59:02;24.60;73.70
21417;DHT22;10869;52.238;10.716;2023-06-14T12:01:30;24.60;72.20
21417;DHT22;10869;52.238;10.716;2023-06-14T12:03:57;24.50;73.10
21417;DHT22;10869;52.238;10.716;2023-06-14T12:06:27;24.40;72.40
21417;DHT22;10869;52.238;10.716;2023-06-14T12:08:59;24.30;72.70
21417;DHT22;10869;52.238;10.716;2023-06-14T12:11:32;24.50;73.00
21417;DHT22;10869;52.238;10.716;2023-06-14T12:13:58;24.50;73.20
21417;DHT22;10869;52.238;10.716;2023-06-14T12:16:31;24.30;71.00
21417;DHT22;10869;52.238;10.716;2023-06-14T12:19:00;24.10;70.80
21417;DHT22;10869;52.238;10.716;2023-06-14T12:21:27;23.90;72.70
21417;DHT22;10869;52.238;10.716;2023-06-14T12:23:54;23.90;74.90
21417;DHT22;10869;52.238;10.716;2023-06-14T12:26:20;23.70;71.70
21417;DHT22;10869;52.238;10.716;2023-06-14T12:28:47;23.80;72.80
21417;DHT22;10869;52.238;10.716;2023-06-14T12:31:14;24.00;74.90
21417;DHT22;10869;52.238;10.716;2023-06-14T12:33:41;24.20;70.70
21417;DHT22;10869;52.238;10.716;2023-06-14T12:36:10;24.40;71.00
21417;DHT22;10869;52.238;10.716;2023-06-14T12:38:36;24.30;70.80
21417;DHT22;10869;52.238;10.716;2023-06-14T12:41:02;24.10;71.20
21417;DHT22;10869;52.238;10.716;2023-06-14T12:43:28;24.50;69.90
21417;DHT22;10869;52.238;10.716;2023-06-14T12:49:16;25.80;67.90
21417;DHT22;10869;52.238;10.716;2023-06-14T12:51:42;26.10;69.50
21417;DHT22;10869;52.238;10.716;2023-06-14T12:54:08;25.70;71.80
21417;DHT22;10869;52.238;10.716;2023-06-14T12:56:34;25.40;69.60
21417;DHT22;10869;52.238;10.716;2023-06-14T12:59:00;25.10;70.60
21417;DHT22;10869;52.238;10.716;2023-06-14T13:01:26;24.70;72.70
21417;DHT22;10869;52.238;10.716;2023-06-14T13:07:17;24.10;73.70
21417;DHT22;10869;52.238;10.716;2023-06-14T13:09:43;23.90;73.20
21417;DHT22;10869;52.238;10.716;2023-06-14T13:12:10;23.90;73.90
21417;DHT22;10869;52.238;10.716;2023-06-14T13:14:48;24.50;71.90
21417;DHT22;10869;52.238;10.716;2023-06-14T13:20:36;24.50;71.50
21417;DHT22;10869;52.238;10.716;2023-06-14T13:23:01;24.20;70.50
21417;DHT22;10869;52.238;10.716;2023-06-14T13:25:29;23.70;71.10
21417;DHT22;10869;52.238;10.716;2023-06-14T13:27:55;23.50;73.20
21417;DHT22;10869;52.238;10.716;2023-06-14T13:30:20;23.40;72.30
21417;DHT22;10869;52.238;10.716;2023-06-14T13:32:47;23.20;76.00
21417;DHT22;10869;52.238;10.716;2023-06-14T13:35:13;23.00;75.20
21417;DHT22;10869;52.238;10.716;2023-06-14T13:37:39;22.90;74.20
21417;DHT22;10869;52.238;10.716;2023-06-14T13:40:05;22.90;75.10
21417;DHT22;10869;52.238;10.716;2023-06-14T13:42:31;22.90;75.00
21417;DHT22;10869;52.238;10.716;2023-06-14T13:44:58;23.70;72.30
21417;DHT22;10869;52.238;10.716;2023-06-14T13:47:24;24.50;70.30
21417;DHT22;10869;52.238;10.716;2023-06-14T13:49:50;24.60;69.20
21417;DHT22;10869;52.238;10.716;2023-06-14T13:52:16;24.40;68.50
21417;DHT22;10869;52.238;10.716;2023-06-14T13:54:41;24.20;69.60
21417;DHT22;10869;52.238;10.716;2023-06-14T13:57:07;24.00;70.10
21417;DHT22;10869;52.238;10.716;2023-06-14T13:59:34;23.80;70.50
21417;DHT22;10869;52.238;10.716;2023-06-14T14:02:00;23.70;72.80
21417;DHT22;10869;52.238;10.716;2023-06-14T14:04:26;23.60;72.70
21417;DHT22;10869;52.238;10.716;2023-06-14T14:10:20;23.40;71.70
21417;DHT22;10869;52.238;10.716;2023-06-14T14:12:46;23.70;71.50
21417;DHT22;10869;52.238;10.716;2023-06-14T14:15:12;23.70;71.40
21417;DHT22;10869;52.238;10.716;2023-06-14T14:17:40;23.70;71.20
21417;DHT22;10869;52.238;10.716;2023-06-14T14:20:07;23.60;73.40
21417;DHT22;10869;52.238;10.716;2023-06-14T14:22:32;23.50;75.50
21417;DHT22;10869;52.238;10.716;2023-06-14T14:25:01;23.50;75.20
21417;DHT22;10869;52.238;10.716;2023-06-14T14:27:26;23.40;76.60
21417;DHT22;10869;52.238;10.716;2023-06-14T14:29:52;23.40;75.60
21417;DHT22;10869;52.238;10.716;2023-06-14T14:32:18;23.30;74.70
21417;DHT22;10869;52.238;10.716;2023-06-14T14:34:43;23.20;75.10
21417;DHT22;10869;52.238;10.716;2023-06-14T14:37:09;23.20;76.50
21417;DHT22;10869;52.238;10.716;2023-06-14T14:39:37;23.10;77.10
21417;DHT22;10869;52.238;10.716;2023-06-14T14:42:03;23.30;74.50
21417;DHT22;10869;52.238;10.716;2023-06-14T14:44:29;23.90;73.90
21417;DHT22;10869;52.238;10.716;2023-06-14T14:46:55;24.60;73.20
21417;DHT22;10869;52.238;10.716;2023-06-14T14:49:20;25.10;69.20
21417;DHT22;10869;52.238;10.716;2023-06-14T14:51:46;25.50;69.30
21417;DHT22;10869;52.238;10.716;2023-06-14T14:54:15;25.50;69.10
21417;DHT22;10869;52.238;10.716;2023-06-14T14:56:40;25.10;68.30
21417;DHT22;10869;52.238;10.716;2023-06-14T15:02:28;24.30;70.60
21417;DHT22;10869;52.238;10.716;2023-06-14T15:08:18;23.60;72.00
21417;DHT22;10869;52.238;10.716;2023-06-14T15:14:06;23.10;71.80
21417;DHT22;10869;52.238;10.716;2023-06-14T15:16:32;22.90;74.10
21417;DHT22;10869;52.238;10.716;2023-06-14T15:18:58;22.70;74.20
21417;DHT22;10869;52.238;10.716;2023-06-14T15:21:23;22.70;71.80
21417;DHT22;10869;52.238;10.716;2023-06-14T15:27:12;22.90;71.90
21417;DHT22;10869;52.238;10.716;2023-06-14T15:29:47;22.90;72.20
21417;DHT22;10869;52.238;10.716;2023-06-14T15:32:12;22.70;73.80
21417;DHT22;10869;52.238;10.716;2023-06-14T15:34:38;22.60;74.30
21417;DHT22;10869;52.238;10.716;2023-06-14T15:40:26;22.40;75.00
21417;DHT22;10869;52.238;10.716;2023-06-14T15:42:53;22.30;75.20
21417;DHT22;10869;52.238;10.716;2023-06-14T15:45:19;22.20;76.70
21417;DHT22;10869;52.238;10.716;2023-06-14T15:47:44;22.20;76.60
21417;DHT22;10869;52.238;10.716;2023-06-14T15:50:10;22.10;78.20
21417;DHT22;10869;52.238;10.716;2023-06-14T15:52:37;22.00;77.40
21417;DHT22;10869;52.238;10.716;2023-06-14T15:55:03;22.00;77.90
21417;DHT22;10869;52.238;10.716;2023-06-14T15:57:32;21.90;77.50
21417;DHT22;10869;52.238;10.716;2023-06-14T16:02:33;21.80;77.60
21417;DHT22;10869;52.238;10.716;2023-06-14T16:04:59;21.80;79.70
21417;DHT22;10869;52.238;10.716;2023-06-14T16:07:25;21.70;79.00
21417;DHT22;10869;52.238;10.716;2023-06-14T16:09:51;21.70;79.20
21417;DHT22;10869;52.238;10.716;2023-06-14T16:12:19;21.80;78.20
21417;DHT22;10869;52.238;10.716;2023-06-14T16:14:49;21.80;78.20
21417;DHT22;10869;52.238;10.716;2023-06-14T16:17:21;22.00;78.40
21417;DHT22;10869;52.238;10.716;2023-06-14T16:19:47;22.40;78.50
21417;DHT22;10869;52.238;10.716;2023-06-14T16:22:33;22.80;75.50
21417;DHT22;10869;52.238;10.716;2023-06-14T16:31:02;23.80;72.70
21417;DHT22;10869;52.238;10.716;2023-06-14T16:33:28;24.10;72.40
21417;DHT22;10869;52.238;10.716;2023-06-14T16:35:54;24.00;71.30
21417;DHT22;10869;52.238;10.716;2023-06-14T16:38:19;23.90;70.30
21417;DHT22;10869;52.238;10.716;2023-06-14T16:40:47;23.90;71.70
21417;DHT22;10869;52.238;10.716;2023-06-14T16:46:35;23.50;73.50
21417;DHT22;10869;52.238;10.716;2023-06-14T16:49:04;23.20;73.00
21417;DHT22;10869;52.238;10.716;2023-06-14T16:51:30;23.00;74.30
21417;DHT22;10869;52.238;10.716;2023-06-14T16:57:17;22.60;73.20
21417;DHT22;10869;52.238;10.716;2023-06-14T17:12:40;22.30;78.30
21417;DHT22;10869;52.238;10.716;2023-06-14T17:15:09;22.40;75.60
21417;DHT22;10869;52.238;10.716;2023-06-14T17:17:35;22.50;74.90
21417;DHT22;10869;52.238;10.716;2023-06-14T17:22:47;22.60;76.10
21417;DHT22;10869;52.238;10.716;2023-06-14T17:33:45;22.70;72.40
21417;DHT22;10869;52.238;10.716;2023-06-14T17:39:33;22.70;71.30
21417;DHT22;10869;52.238;10.716;2023-06-14T17:42:00;22.60;70.80
21417;DHT22;10869;52.238;10.716;2023-06-14T17:44:26;22.40;72.10
21417;DHT22;10869;52.238;10.716;2023-06-14T17:46:51;22.30;73.20
21417;DHT22;10869;52.238;10.716;2023-06-14T17:49:17;22.20;72.90
21417;DHT22;10869;52.238;10.716;2023-06-14T17:51:48;22.10;73.40
21417;DHT22;10869;52.238;10.716;2023-06-14T17:54:17;22.10;73.10
21417;DHT22;10869;52.238;10.716;2023-06-14T17:56:43;22.00;73.40
21417;DHT22;10869;52.238;10.716;2023-06-14T17:59:09;21.90;73.80
21417;DHT22;10869;52.238;10.716;2023-06-14T18:01:35;21.80;74.20
21417;DHT22;10869;52.238;10.716;2023-06-14T18:04:01;21.70;75.70
21417;DHT22;10869;52.238;10.716;2023-06-14T18:06:30;21.70;76.80
21417;DHT22;10869;52.238;10.716;2023-06-14T18:09:02;21.60;77.70
21417;DHT22;10869;52.238;10.716;2023-06-14T18:16:39;21.30;78.90
21417;DHT22;10869;52.238;10.716;2023-06-14T18:19:09;21.20;79.80
21417;DHT22;10869;52.238;10.716;2023-06-14T18:21:35;21.10;81.00
21417;DHT22;10869;52.238;10.716;2023-06-14T18:24:01;21.00;81.70
21417;DHT22;10869;52.238;10.716;2023-06-14T18:29:50;20.80;83.70
21417;DHT22;10869;52.238;10.716;2023-06-14T18:35:41;20.40;84.20
21417;DHT22;10869;52.238;10.716;2023-06-14T18:38:10;20.30;85.00
21417;DHT22;10869;52.238;10.716;2023-06-14T18:40:38;20.20;85.70
21417;DHT22;10869;52.238;10.716;2023-06-14T19:17:30;18.50;90.10
21417;DHT22;10869;52.238;10.716;2023-06-14T19:23:21;18.10;90.30
21417;DHT22;10869;52.238;10.716;2023-06-14T19:29:11;17.90;90.20
21417;DHT22;10869;52.238;10.716;2023-06-14T19:31:37;17.70;90.40
21417;DHT22;10869;52.238;10.716;2023-06-14T19:34:03;17.70;90.30
21417;DHT22;10869;52.238;10.716;2023-06-14T19:57:41;17.00;90.30
21417;DHT22;10869;52.238;10.716;2023-06-14T20:00:07;17.00;90.20
21417;DHT22;10869;52.238;10.716;2023-06-14T20:02:34;16.90;90.10
21417;DHT22;10869;52.238;10.716;2023-06-14T20:08:22;16.90;89.40
21417;DHT22;10869;52.238;10.716;2023-06-14T20:14:11;16.80;89.30
21417;DHT22;10869;52.238;10.716;2023-06-14T20:16:37;16.70;88.60
21417;DHT22;10869;52.238;10.716;2023-06-14T20:19:03;16.70;88.30
21417;DHT22;10869;52.238;10.716;2023-06-14T20:21:29;16.70;88.50
21417;DHT22;10869;52.238;10.716;2023-06-14T20:23:55;16.70;88.70
21417;DHT22;10869;52.238;10.716;2023-06-14T20:26:20;16.70;88.60
21417;DHT22;10869;52.238;10.716;2023-06-14T20:28:46;16.60;88.60
21417;DHT22;10869;52.238;10.716;2023-06-14T20:31:14;16.60;88.70
21417;DHT22;10869;52.238;10.716;2023-06-14T20:33:44;16.50;88.60
21417;DHT22;10869;52.238;10.716;2023-06-14T20:36:11;16.50;88.50
21417;DHT22;10869;52.238;10.716;2023-06-14T20:38:36;16.50;88.70
21417;DHT22;10869;52.238;10.716;2023-06-14T20:43:38;16.40;88.90
21417;DHT22;10869;52.238;10.716;2023-06-14T20:46:03;16.40;89.00
21417;DHT22;10869;52.238;10.716;2023-06-14T20:48:33;16.40;88.90
21417;DHT22;10869;52.238;10.716;2023-06-14T20:51:00;16.40;88.70
21417;DHT22;10869;52.238;10.716;2023-06-14T20:53:25;16.40;88.50
21417;DHT22;10869;52.238;10.716;2023-06-14T20:55:51;16.50;88.30
21417;DHT22;10869;52.238;10.716;2023-06-14T20:58:17;16.50;88.20
21417;DHT22;10869;52.238;10.716;2023-06-14T21:03:19;16.50;88.10
21417;DHT22;10869;52.238;10.716;2023-06-14T21:05:45;16.50;87.90
21417;DHT22;10869;52.238;10.716;2023-06-14T21:08:11;16.50;88.40
21417;DHT22;10869;52.238;10.716;2023-06-14T21:10:37;16.40;88.40
21417;DHT22;10869;52.238;10.716;2023-06-14T21:13:03;16.40;88.70
21417;DHT22;10869;52.238;10.716;2023-06-14T21:15:28;16.30;89.10
21417;DHT22;10869;52.238;10.716;2023-06-14T21:17:55;16.20;89.30
21417;DHT22;10869;52.238;10.716;2023-06-14T21:20:21;16.20;89.50
21417;DHT22;10869;52.238;10.716;2023-06-14T21:22:48;16.10;89.80
21417;DHT22;10869;52.238;10.716;2023-06-14T21:25:14;16.00;90.00
21417;DHT22;10869;52.238;10.716;2023-06-14T21:27:40;15.90;90.00
21417;DHT22;10869;52.238;10.716;2023-06-14T21:30:07;15.90;90.10
21417;DHT22;10869;52.238;10.716;2023-06-14T21:32:36;15.80;90.20
21417;DHT22;10869;52.238;10.716;2023-06-14T21:35:02;15.80;90.30
21417;DHT22;10869;52.238;10.716;2023-06-14T21:37:28;15.70;90.50
21417;DHT22;10869;52.238;10.716;2023-06-14T21:39:54;15.60;90.50
21417;DHT22;10869;52.238;10.716;2023-06-14T21:42:20;15.60;90.50
21417;DHT22;10869;52.238;10.716;2023-06-14T21:44:46;15.50;90.40
21417;DHT22;10869;52.238;10.716;2023-06-14T21:47:13;15.50;90.20
21417;DHT22;10869;52.238;10.716;2023-06-14T21:49:41;15.50;90.20
21417;DHT22;10869;52.238;10.716;2023-06-14T21:52:10;15.50;90.50
21417;DHT22;10869;52.238;10.716;2023-06-14T21:54:36;15.40;90.60
21417;DHT22;10869;52.238;10.716;2023-06-14T21:57:02;15.40;90.60
21417;DHT22;10869;52.238;10.716;2023-06-14T21:59:28;15.40;90.60
21417;DHT22;10869;52.238;10.716;2023-06-14T22:01:54;15.30;90.60